Terminal Aerodrome Forecast
Issued by NWS

Home | Current Version | Previous Version | Text Only | Print | Product List | Glossary On
Versions: 1 2 3 4 5 6 7 8 9 10 11 12
000
FTUS46 KSGX 191700
TAFPSP
TAF
KPSP 191732Z 1918/2018 10008KT P6SM SCT100
     FM200300 33009KT P6SM SCT100
     FM200600 VRB04KT P6SM FEW100=

USA.gov is the U.S. government's official web portal to all federal, state and local government web resources and services.